sensor_id;sensor_type;location;lat;lon;timestamp;pressure;altitude;pressure_sealevel;temperature;humidity
3250;BME280;1637;42.020;23.992;2023-05-21T00:00:02;92692.94;;;12.80;100.00
3250;BME280;1637;42.020;23.992;2023-05-21T00:02:35;92695.78;;;13.09;100.00
3250;BME280;1637;42.020;23.992;2023-05-21T00:05:02;92703.69;;;13.16;100.00
3250;BME280;1637;42.020;23.992;2023-05-21T00:07:29;92695.69;;;13.13;100.00
3250;BME280;1637;42.020;23.992;2023-05-21T00:09:57;92689.19;;;13.30;100.00
3250;BME280;1637;42.020;23.992;2023-05-21T00:12:24;92687.88;;;12.66;100.00
3250;BME280;1637;42.020;23.992;2023-05-21T00:14:52;92679.19;;;12.58;100.00
3250;BME280;1637;42.020;23.992;2023-05-21T00:17:19;92675.16;;;13.02;100.00
3250;BME280;1637;42.020;23.992;2023-05-21T00:19:46;92678.34;;;12.97;100.00
3250;BME280;1637;42.020;23.992;2023-05-21T00:22:14;92677.94;;;12.99;100.00
3250;BME280;1637;42.020;23.992;2023-05-21T00:24:41;92672.63;;;12.95;100.00
3250;BME280;1637;42.020;23.992;2023-05-21T00:27:09;92671.34;;;13.36;100.00
3250;BME280;1637;42.020;23.992;2023-05-21T00:29:36;92677.75;;;13.42;100.00
3250;BME280;1637;42.020;23.992;2023-05-21T00:32:05;92664.88;;;13.17;100.00
3250;BME280;1637;42.020;23.992;2023-05-21T00:34:32;92676.09;;;13.12;100.00
3250;BME280;1637;42.020;23.992;2023-05-21T00:36:59;92675.09;;;13.06;100.00
3250;BME280;1637;42.020;23.992;2023-05-21T00:39:27;92669.63;;;13.09;100.00
3250;BME280;1637;42.020;23.992;2023-05-21T00:41:54;92655.75;;;12.95;100.00
3250;BME280;1637;42.020;23.992;2023-05-21T00:44:21;92664.66;;;12.92;100.00
3250;BME280;1637;42.020;23.992;2023-05-21T00:46:49;92672.81;;;12.88;100.00
3250;BME280;1637;42.020;23.992;2023-05-21T00:49:20;92668.81;;;12.77;100.00
3250;BME280;1637;42.020;23.992;2023-05-21T00:51:49;92665.72;;;12.78;100.00
3250;BME280;1637;42.020;23.992;2023-05-21T00:54:16;92669.25;;;12.75;100.00
3250;BME280;1637;42.020;23.992;2023-05-21T00:56:43;92629.97;;;12.45;100.00
3250;BME280;1637;42.020;23.992;2023-05-21T00:59:11;92659.63;;;12.58;100.00
3250;BME280;1637;42.020;23.992;2023-05-21T01:01:38;92657.22;;;12.63;100.00
3250;BME280;1637;42.020;23.992;2023-05-21T01:04:05;92645.72;;;12.63;100.00
3250;BME280;1637;42.020;23.992;2023-05-21T01:06:33;92656.63;;;12.72;100.00
3250;BME280;1637;42.020;23.992;2023-05-21T01:09:00;92654.28;;;12.74;100.00
3250;BME280;1637;42.020;23.992;2023-05-21T01:11:35;92653.13;;;12.75;100.00
3250;BME280;1637;42.020;23.992;2023-05-21T01:14:04;92648.09;;;12.77;100.00
3250;BME280;1637;42.020;23.992;2023-05-21T01:16:35;92649.78;;;12.87;100.00
3250;BME280;1637;42.020;23.992;2023-05-21T01:19:03;92648.44;;;12.79;100.00
3250;BME280;1637;42.020;23.992;2023-05-21T01:21:33;92647.25;;;12.80;100.00
3250;BME280;1637;42.020;23.992;2023-05-21T01:24:04;92645.06;;;12.39;100.00
3250;BME280;1637;42.020;23.992;2023-05-21T01:26:32;92647.38;;;12.57;100.00
3250;BME280;1637;42.020;23.992;2023-05-21T01:29:03;92633.84;;;12.44;100.00
3250;BME280;1637;42.020;23.992;2023-05-21T01:31:41;92647.50;;;12.50;100.00
3250;BME280;1637;42.020;23.992;2023-05-21T01:34:12;92640.84;;;12.38;100.00
3250;BME280;1637;42.020;23.992;2023-05-21T01:36:46;92646.03;;;12.09;100.00
3250;BME280;1637;42.020;23.992;2023-05-21T01:39:19;92631.78;;;12.12;100.00
3250;BME280;1637;42.020;23.992;2023-05-21T01:41:52;92636.59;;;12.21;100.00
3250;BME280;1637;42.020;23.992;2023-05-21T01:44:21;92631.44;;;12.10;100.00
3250;BME280;1637;42.020;23.992;2023-05-21T01:46:51;92625.59;;;12.15;100.00
3250;BME280;1637;42.020;23.992;2023-05-21T01:49:19;92633.16;;;12.20;100.00
3250;BME280;1637;42.020;23.992;2023-05-21T01:51:47;92626.06;;;12.10;100.00
3250;BME280;1637;42.020;23.992;2023-05-21T01:54:16;92628.22;;;12.19;100.00
3250;BME280;1637;42.020;23.992;2023-05-21T01:56:42;92628.63;;;11.97;100.00
3250;BME280;1637;42.020;23.992;2023-05-21T01:59:10;92627.38;;;11.82;100.00
3250;BME280;1637;42.020;23.992;2023-05-21T02:01:37;92619.84;;;11.74;100.00
3250;BME280;1637;42.020;23.992;2023-05-21T02:04:04;92615.56;;;11.56;100.00
3250;BME280;1637;42.020;23.992;2023-05-21T02:06:30;92610.34;;;11.69;100.00
3250;BME280;1637;42.020;23.992;2023-05-21T02:08:57;92615.75;;;11.65;100.00
3250;BME280;1637;42.020;23.992;2023-05-21T02:11:25;92611.06;;;11.50;100.00
3250;BME280;1637;42.020;23.992;2023-05-21T02:13:52;92604.09;;;11.32;100.00
3250;BME280;1637;42.020;23.992;2023-05-21T02:16:19;92607.34;;;11.44;100.00
3250;BME280;1637;42.020;23.992;2023-05-21T02:18:46;92608.25;;;11.37;100.00
3250;BME280;1637;42.020;23.992;2023-05-21T02:21:16;92608.28;;;11.33;100.00
3250;BME280;1637;42.020;23.992;2023-05-21T02:23:42;92611.31;;;11.35;100.00
3250;BME280;1637;42.020;23.992;2023-05-21T02:26:09;92612.09;;;11.36;100.00
3250;BME280;1637;42.020;23.992;2023-05-21T02:28:37;92607.69;;;11.22;100.00
3250;BME280;1637;42.020;23.992;2023-05-21T02:31:04;92615.22;;;11.31;100.00
3250;BME280;1637;42.020;23.992;2023-05-21T02:33:31;92611.56;;;11.21;100.00
3250;BME280;1637;42.020;23.992;2023-05-21T02:35:58;92612.16;;;11.32;100.00
3250;BME280;1637;42.020;23.992;2023-05-21T02:38:25;92612.34;;;11.22;100.00
3250;BME280;1637;42.020;23.992;2023-05-21T02:40:51;92609.31;;;11.20;100.00
3250;BME280;1637;42.020;23.992;2023-05-21T02:43:18;92602.59;;;11.08;100.00
3250;BME280;1637;42.020;23.992;2023-05-21T02:45:46;92620.19;;;11.09;100.00
3250;BME280;1637;42.020;23.992;2023-05-21T02:48:13;92619.72;;;11.14;100.00
3250;BME280;1637;42.020;23.992;2023-05-21T02:50:40;92615.88;;;11.15;100.00
3250;BME280;1637;42.020;23.992;2023-05-21T02:53:07;92609.75;;;11.15;100.00
3250;BME280;1637;42.020;23.992;2023-05-21T02:55:34;92618.97;;;11.14;100.00
3250;BME280;1637;42.020;23.992;2023-05-21T02:58:00;92606.63;;;11.20;100.00
3250;BME280;1637;42.020;23.992;2023-05-21T03:00:27;92583.25;;;11.20;100.00
3250;BME280;1637;42.020;23.992;2023-05-21T03:02:55;92610.31;;;11.26;100.00
3250;BME280;1637;42.020;23.992;2023-05-21T03:05:22;92606.13;;;11.25;100.00
3250;BME280;1637;42.020;23.992;2023-05-21T03:07:49;92601.38;;;11.36;100.00
3250;BME280;1637;42.020;23.992;2023-05-21T03:10:16;92613.31;;;11.31;100.00
3250;BME280;1637;42.020;23.992;2023-05-21T03:12:42;92613.00;;;11.26;100.00
3250;BME280;1637;42.020;23.992;2023-05-21T03:15:10;92609.41;;;11.13;100.00
3250;BME280;1637;42.020;23.992;2023-05-21T03:17:39;92613.31;;;11.31;100.00
3250;BME280;1637;42.020;23.992;2023-05-21T03:20:09;92609.56;;;11.25;100.00
3250;BME280;1637;42.020;23.992;2023-05-21T03:22:41;92611.38;;;11.32;100.00
3250;BME280;1637;42.020;23.992;2023-05-21T03:25:08;92614.84;;;11.52;100.00
3250;BME280;1637;42.020;23.992;2023-05-21T03:27:35;92619.06;;;11.53;100.00
3250;BME280;1637;42.020;23.992;2023-05-21T03:30:02;92608.78;;;11.48;100.00
3250;BME280;1637;42.020;23.992;2023-05-21T03:32:29;92621.34;;;11.31;100.00
3250;BME280;1637;42.020;23.992;2023-05-21T03:34:58;92629.16;;;11.46;100.00
3250;BME280;1637;42.020;23.992;2023-05-21T03:37:26;92615.38;;;11.44;100.00
3250;BME280;1637;42.020;23.992;2023-05-21T03:39:53;92615.69;;;11.49;100.00
3250;BME280;1637;42.020;23.992;2023-05-21T03:42:20;92613.00;;;11.49;100.00
3250;BME280;1637;42.020;23.992;2023-05-21T03:44:46;92610.81;;;11.64;100.00
3250;BME280;1637;42.020;23.992;2023-05-21T03:47:13;92612.38;;;11.42;100.00
3250;BME280;1637;42.020;23.992;2023-05-21T03:49:40;92609.09;;;11.54;100.00
3250;BME280;1637;42.020;23.992;2023-05-21T03:52:07;92604.34;;;11.42;100.00
3250;BME280;1637;42.020;23.992;2023-05-21T03:54:35;92610.91;;;11.37;100.00
3250;BME280;1637;42.020;23.992;2023-05-21T03:57:02;92609.69;;;11.42;100.00
3250;BME280;1637;42.020;23.992;2023-05-21T03:59:28;92610.59;;;11.55;100.00
3250;BME280;1637;42.020;23.992;2023-05-21T04:01:55;92601.09;;;11.50;100.00
3250;BME280;1637;42.020;23.992;2023-05-21T04:04:22;92602.84;;;11.60;100.00
3250;BME280;1637;42.020;23.992;2023-05-21T04:06:50;92607.09;;;11.58;100.00
3250;BME280;1637;42.020;23.992;2023-05-21T04:09:18;92612.53;;;11.54;100.00
3250;BME280;1637;42.020;23.992;2023-05-21T04:11:46;92614.47;;;11.74;100.00
3250;BME280;1637;42.020;23.992;2023-05-21T04:14:13;92606.50;;;11.70;100.00
3250;BME280;1637;42.020;23.992;2023-05-21T04:16:40;92613.94;;;11.62;100.00
3250;BME280;1637;42.020;23.992;2023-05-21T04:19:08;92610.00;;;11.67;100.00
3250;BME280;1637;42.020;23.992;2023-05-21T04:21:35;92608.59;;;12.58;100.00
3250;BME280;1637;42.020;23.992;2023-05-21T04:24:02;92616.97;;;13.28;100.00
3250;BME280;1637;42.020;23.992;2023-05-21T04:26:28;92619.91;;;14.08;100.00
3250;BME280;1637;42.020;23.992;2023-05-21T04:28:59;92624.13;;;14.51;95.54
3250;BME280;1637;42.020;23.992;2023-05-21T04:31:28;92624.88;;;14.09;97.59
3250;BME280;1637;42.020;23.992;2023-05-21T04:33:55;92615.44;;;13.44;100.00
3250;BME280;1637;42.020;23.992;2023-05-21T04:36:22;92615.63;;;14.10;99.79
3250;BME280;1637;42.020;23.992;2023-05-21T04:38:49;92616.66;;;14.00;96.81
3250;BME280;1637;42.020;23.992;2023-05-21T04:41:16;92593.94;;;13.72;100.00
3250;BME280;1637;42.020;23.992;2023-05-21T04:43:45;92619.25;;;14.04;98.90
3250;BME280;1637;42.020;23.992;2023-05-21T04:46:13;92616.53;;;13.91;99.68
3250;BME280;1637;42.020;23.992;2023-05-21T04:48:40;92609.16;;;13.79;100.00
3250;BME280;1637;42.020;23.992;2023-05-21T04:51:07;92608.09;;;13.60;100.00
3250;BME280;1637;42.020;23.992;2023-05-21T04:53:33;92610.66;;;13.80;100.00
3250;BME280;1637;42.020;23.992;2023-05-21T04:56:00;92618.31;;;14.65;97.27
3250;BME280;1637;42.020;23.992;2023-05-21T04:58:29;92622.47;;;15.55;91.32
3250;BME280;1637;42.020;23.992;2023-05-21T05:00:57;92626.34;;;16.23;85.21
3250;BME280;1637;42.020;23.992;2023-05-21T05:03:29;92633.06;;;17.24;79.21
3250;BME280;1637;42.020;23.992;2023-05-21T05:05:55;92636.25;;;18.08;75.49
3250;BME280;1637;42.020;23.992;2023-05-21T05:08:22;92632.28;;;18.64;72.63
3250;BME280;1637;42.020;23.992;2023-05-21T05:10:49;92627.59;;;18.55;73.57
3250;BME280;1637;42.020;23.992;2023-05-21T05:13:16;92628.84;;;17.90;75.38
3250;BME280;1637;42.020;23.992;2023-05-21T05:15:42;92630.00;;;17.12;78.03
3250;BME280;1637;42.020;23.992;2023-05-21T05:18:09;92619.88;;;16.95;79.98
3250;BME280;1637;42.020;23.992;2023-05-21T05:20:37;92621.63;;;16.58;82.72
3250;BME280;1637;42.020;23.992;2023-05-21T05:23:04;92612.13;;;16.31;84.04
3250;BME280;1637;42.020;23.992;2023-05-21T05:25:31;92612.81;;;16.01;84.65
3250;BME280;1637;42.020;23.992;2023-05-21T05:27:58;92607.28;;;15.82;87.30
3250;BME280;1637;42.020;23.992;2023-05-21T05:30:25;92624.81;;;15.78;88.71
3250;BME280;1637;42.020;23.992;2023-05-21T05:32:51;92608.03;;;16.48;85.69
3250;BME280;1637;42.020;23.992;2023-05-21T05:35:18;92610.63;;;18.00;76.42
3250;BME280;1637;42.020;23.992;2023-05-21T05:37:46;92613.47;;;18.14;75.14
3250;BME280;1637;42.020;23.992;2023-05-21T05:40:13;92617.19;;;18.72;73.37
3250;BME280;1637;42.020;23.992;2023-05-21T05:42:40;92617.69;;;19.03;72.05
3250;BME280;1637;42.020;23.992;2023-05-21T05:45:08;92621.31;;;19.09;70.59
3250;BME280;1637;42.020;23.992;2023-05-21T05:47:35;92634.66;;;20.27;67.11
3250;BME280;1637;42.020;23.992;2023-05-21T05:50:02;92630.53;;;20.31;67.25
3250;BME280;1637;42.020;23.992;2023-05-21T05:52:28;92634.38;;;20.92;63.90
3250;BME280;1637;42.020;23.992;2023-05-21T05:54:57;92636.78;;;21.20;62.39
3250;BME280;1637;42.020;23.992;2023-05-21T05:57:23;92633.09;;;19.72;67.57
3250;BME280;1637;42.020;23.992;2023-05-21T05:59:50;92621.91;;;18.44;72.33
3250;BME280;1637;42.020;23.992;2023-05-21T06:02:17;92619.56;;;16.93;79.50
3250;BME280;1637;42.020;23.992;2023-05-21T06:04:44;92624.97;;;16.93;81.21
3250;BME280;1637;42.020;23.992;2023-05-21T06:07:10;92626.31;;;17.37;79.54
3250;BME280;1637;42.020;23.992;2023-05-21T06:09:37;92624.94;;;17.82;77.93
3250;BME280;1637;42.020;23.992;2023-05-21T06:12:06;92626.28;;;17.77;78.88
3250;BME280;1637;42.020;23.992;2023-05-21T06:14:33;92621.75;;;17.65;81.12
3250;BME280;1637;42.020;23.992;2023-05-21T06:17:00;92627.63;;;17.82;78.88
3250;BME280;1637;42.020;23.992;2023-05-21T06:19:26;92630.78;;;17.90;77.27
3250;BME280;1637;42.020;23.992;2023-05-21T06:21:53;92636.50;;;17.92;78.17
3250;BME280;1637;42.020;23.992;2023-05-21T06:24:20;92628.78;;;17.63;78.61
3250;BME280;1637;42.020;23.992;2023-05-21T06:26:46;92626.56;;;17.70;78.13
3250;BME280;1637;42.020;23.992;2023-05-21T06:29:15;92630.25;;;17.45;79.59
3250;BME280;1637;42.020;23.992;2023-05-21T06:31:42;92619.84;;;17.35;81.58
3250;BME280;1637;42.020;23.992;2023-05-21T06:34:09;92621.31;;;17.17;85.19
3250;BME280;1637;42.020;23.992;2023-05-21T06:36:36;92626.22;;;17.59;84.47
3250;BME280;1637;42.020;23.992;2023-05-21T06:39:02;92621.28;;;17.67;84.04
3250;BME280;1637;42.020;23.992;2023-05-21T06:41:29;92588.00;;;17.57;81.62
3250;BME280;1637;42.020;23.992;2023-05-21T06:43:56;92612.66;;;17.50;81.67
3250;BME280;1637;42.020;23.992;2023-05-21T06:46:24;92620.25;;;17.64;76.99
3250;BME280;1637;42.020;23.992;2023-05-21T06:48:51;92627.38;;;17.40;77.50
3250;BME280;1637;42.020;23.992;2023-05-21T06:51:17;92632.59;;;17.25;77.25
3250;BME280;1637;42.020;23.992;2023-05-21T06:53:44;92628.59;;;16.99;75.37
3250;BME280;1637;42.020;23.992;2023-05-21T06:56:11;92633.88;;;16.71;72.28
3250;BME280;1637;42.020;23.992;2023-05-21T06:58:38;92634.13;;;16.42;71.01
3250;BME280;1637;42.020;23.992;2023-05-21T07:01:05;92635.13;;;16.58;67.92
3250;BME280;1637;42.020;23.992;2023-05-21T07:03:34;92640.16;;;16.68;71.29
3250;BME280;1637;42.020;23.992;2023-05-21T07:06:01;92625.94;;;16.77;71.20
3250;BME280;1637;42.020;23.992;2023-05-21T07:08:28;92636.88;;;16.52;68.83
3250;BME280;1637;42.020;23.992;2023-05-21T07:10:55;92634.88;;;16.65;66.93
3250;BME280;1637;42.020;23.992;2023-05-21T07:13:21;92636.66;;;16.59;67.33
3250;BME280;1637;42.020;23.992;2023-05-21T07:15:48;92644.06;;;16.45;64.58
3250;BME280;1637;42.020;23.992;2023-05-21T07:18:15;92647.91;;;16.35;65.24
3250;BME280;1637;42.020;23.992;2023-05-21T07:20:43;92648.78;;;16.32;64.98
3250;BME280;1637;42.020;23.992;2023-05-21T07:23:10;92653.56;;;16.28;64.67
3250;BME280;1637;42.020;23.992;2023-05-21T07:25:37;92655.56;;;16.37;64.83
3250;BME280;1637;42.020;23.992;2023-05-21T07:28:04;92658.16;;;16.40;65.06
3250;BME280;1637;42.020;23.992;2023-05-21T07:30:30;92658.22;;;16.49;64.92
3250;BME280;1637;42.020;23.992;2023-05-21T07:32:57;92657.75;;;16.51;64.12
3250;BME280;1637;42.020;23.992;2023-05-21T07:35:24;92582.50;;;16.19;64.18
3250;BME280;1637;42.020;23.992;2023-05-21T07:37:52;92653.97;;;16.92;63.25
3250;BME280;1637;42.020;23.992;2023-05-21T07:40:19;92657.06;;;17.12;62.96
3250;BME280;1637;42.020;23.992;2023-05-21T07:42:46;92653.78;;;17.17;62.26
3250;BME280;1637;42.020;23.992;2023-05-21T07:45:12;92655.66;;;17.48;62.24
3250;BME280;1637;42.020;23.992;2023-05-21T07:47:39;92654.59;;;17.85;61.13
3250;BME280;1637;42.020;23.992;2023-05-21T07:50:06;92655.03;;;17.84;58.70
3250;BME280;1637;42.020;23.992;2023-05-21T07:52:33;92663.00;;;17.88;58.70
3250;BME280;1637;42.020;23.992;2023-05-21T07:55:01;92657.00;;;17.83;59.41
3250;BME280;1637;42.020;23.992;2023-05-21T07:57:28;92643.31;;;17.87;59.75
3250;BME280;1637;42.020;23.992;2023-05-21T07:59:55;92653.81;;;17.94;57.95
3250;BME280;1637;42.020;23.992;2023-05-21T08:02:22;92657.00;;;17.93;56.76
3250;BME280;1637;42.020;23.992;2023-05-21T08:04:48;92644.63;;;17.92;57.17
3250;BME280;1637;42.020;23.992;2023-05-21T08:07:16;92648.84;;;17.93;56.80
3250;BME280;1637;42.020;23.992;2023-05-21T08:09:44;92647.22;;;18.04;57.21
3250;BME280;1637;42.020;23.992;2023-05-21T08:12:12;92643.13;;;18.09;56.73
3250;BME280;1637;42.020;23.992;2023-05-21T08:14:40;92660.94;;;18.28;56.90
3250;BME280;1637;42.020;23.992;2023-05-21T08:17:08;92666.66;;;18.48;55.79
3250;BME280;1637;42.020;23.992;2023-05-21T08:19:35;92662.41;;;18.29;56.29
3250;BME280;1637;42.020;23.992;2023-05-21T08:22:01;92665.44;;;18.31;56.78
3250;BME280;1637;42.020;23.992;2023-05-21T08:24:30;92664.53;;;18.16;55.67
3250;BME280;1637;42.020;23.992;2023-05-21T08:26:57;92664.38;;;18.10;55.30
3250;BME280;1637;42.020;23.992;2023-05-21T08:29:25;92659.84;;;18.53;53.28
3250;BME280;1637;42.020;23.992;2023-05-21T08:31:52;92660.16;;;19.25;51.66
3250;BME280;1637;42.020;23.992;2023-05-21T08:34:19;92662.16;;;19.81;50.91
3250;BME280;1637;42.020;23.992;2023-05-21T08:36:45;92665.34;;;20.03;50.20
3250;BME280;1637;42.020;23.992;2023-05-21T08:39:14;92663.31;;;20.13;47.65
3250;BME280;1637;42.020;23.992;2023-05-21T08:41:41;92654.03;;;20.58;49.27
3250;BME280;1637;42.020;23.992;2023-05-21T08:44:14;92664.00;;;20.61;47.66
3250;BME280;1637;42.020;23.992;2023-05-21T08:46:44;92658.34;;;20.11;48.30
3250;BME280;1637;42.020;23.992;2023-05-21T08:49:16;92653.69;;;19.13;52.59
3250;BME280;1637;42.020;23.992;2023-05-21T08:51:44;92643.94;;;19.06;53.96
3250;BME280;1637;42.020;23.992;2023-05-21T08:54:12;92649.66;;;19.08;53.21
3250;BME280;1637;42.020;23.992;2023-05-21T08:56:41;92643.13;;;19.81;51.49
3250;BME280;1637;42.020;23.992;2023-05-21T08:59:11;92651.69;;;19.32;54.00
3250;BME280;1637;42.020;23.992;2023-05-21T09:01:39;92651.91;;;19.52;52.59
3250;BME280;1637;42.020;23.992;2023-05-21T09:04:09;92648.75;;;19.44;50.78
3250;BME280;1637;42.020;23.992;2023-05-21T09:06:39;92661.88;;;19.46;54.44
3250;BME280;1637;42.020;23.992;2023-05-21T09:09:12;92657.59;;;19.63;50.73
3250;BME280;1637;42.020;23.992;2023-05-21T09:11:40;92657.56;;;19.30;53.43
3250;BME280;1637;42.020;23.992;2023-05-21T09:14:09;92663.69;;;19.07;51.45
3250;BME280;1637;42.020;23.992;2023-05-21T09:16:36;92674.25;;;18.96;49.19
3250;BME280;1637;42.020;23.992;2023-05-21T09:19:03;92658.81;;;19.20;51.21
3250;BME280;1637;42.020;23.992;2023-05-21T09:21:31;92659.72;;;19.59;53.06
3250;BME280;1637;42.020;23.992;2023-05-21T09:23:59;92670.81;;;19.37;55.01
3250;BME280;1637;42.020;23.992;2023-05-21T09:26:26;92672.00;;;19.36;52.62
3250;BME280;1637;42.020;23.992;2023-05-21T09:28:56;92676.97;;;19.80;48.82
3250;BME280;1637;42.020;23.992;2023-05-21T09:31:23;92666.13;;;19.38;46.96
3250;BME280;1637;42.020;23.992;2023-05-21T09:33:51;92662.94;;;18.97;48.01
3250;BME280;1637;42.020;23.992;2023-05-21T09:36:20;92668.13;;;18.59;47.52
3250;BME280;1637;42.020;23.992;2023-05-21T09:38:49;92666.63;;;18.58;48.04
3250;BME280;1637;42.020;23.992;2023-05-21T09:41:17;92659.72;;;18.47;48.28
3250;BME280;1637;42.020;23.992;2023-05-21T09:43:44;92672.81;;;18.49;48.88
3250;BME280;1637;42.020;23.992;2023-05-21T09:46:11;92663.31;;;18.35;49.83
3250;BME280;1637;42.020;23.992;2023-05-21T09:48:39;92674.34;;;18.59;50.08
3250;BME280;1637;42.020;23.992;2023-05-21T09:51:08;92663.19;;;18.48;50.18
3250;BME280;1637;42.020;23.992;2023-05-21T09:53:34;92670.84;;;18.31;49.13
3250;BME280;1637;42.020;23.992;2023-05-21T09:56:03;92666.34;;;18.37;50.58
3250;BME280;1637;42.020;23.992;2023-05-21T09:58:31;92667.25;;;18.43;51.09
3250;BME280;1637;42.020;23.992;2023-05-21T10:00:59;92670.88;;;18.40;51.59
3250;BME280;1637;42.020;23.992;2023-05-21T10:03:27;92676.56;;;17.97;56.03
3250;BME280;1637;42.020;23.992;2023-05-21T10:05:56;92674.94;;;17.50;57.74
3250;BME280;1637;42.020;23.992;2023-05-21T10:08:26;92682.59;;;17.02;59.21
3250;BME280;1637;42.020;23.992;2023-05-21T10:10:54;92688.91;;;17.08;59.27
3250;BME280;1637;42.020;23.992;2023-05-21T10:13:23;92666.69;;;17.13;59.91
3250;BME280;1637;42.020;23.992;2023-05-21T10:15:56;92645.69;;;16.65;59.86
3250;BME280;1637;42.020;23.992;2023-05-21T10:18:25;92670.50;;;16.94;59.25
3250;BME280;1637;42.020;23.992;2023-05-21T10:20:54;92667.63;;;16.89;59.55
3250;BME280;1637;42.020;23.992;2023-05-21T10:23:22;92673.56;;;17.05;59.05
3250;BME280;1637;42.020;23.992;2023-05-21T10:25:50;92670.28;;;17.10;58.59
3250;BME280;1637;42.020;23.992;2023-05-21T10:28:19;92669.41;;;17.13;57.47
3250;BME280;1637;42.020;23.992;2023-05-21T10:30:47;92677.25;;;17.70;57.04
3250;BME280;1637;42.020;23.992;2023-05-21T10:33:14;92679.44;;;18.02;55.09
3250;BME280;1637;42.020;23.992;2023-05-21T10:35:43;92679.44;;;18.02;55.22
3250;BME280;1637;42.020;23.992;2023-05-21T10:38:12;92674.53;;;17.21;56.71
3250;BME280;1637;42.020;23.992;2023-05-21T10:40:40;92675.03;;;17.77;57.75
3250;BME280;1637;42.020;23.992;2023-05-21T10:43:29;92675.78;;;17.78;57.11
3250;BME280;1637;42.020;23.992;2023-05-21T10:46:27;92678.97;;;17.95;55.89
3250;BME280;1637;42.020;23.992;2023-05-21T10:49:03;92667.84;;;18.11;54.81
3250;BME280;1637;42.020;23.992;2023-05-21T10:51:44;92666.78;;;18.08;55.02
3250;BME280;1637;42.020;23.992;2023-05-21T10:54:39;92671.75;;;18.37;55.74
3250;BME280;1637;42.020;23.992;2023-05-21T10:57:16;92673.88;;;18.06;53.66
3250;BME280;1637;42.020;23.992;2023-05-21T10:59:48;92663.03;;;18.15;54.44
3250;BME280;1637;42.020;23.992;2023-05-21T11:02:18;92673.25;;;18.57;53.15
3250;BME280;1637;42.020;23.992;2023-05-21T11:04:57;92672.00;;;19.03;54.40
3250;BME280;1637;42.020;23.992;2023-05-21T11:07:50;92667.84;;;18.47;53.60
3250;BME280;1637;42.020;23.992;2023-05-21T11:10:34;92650.72;;;19.02;52.85
3250;BME280;1637;42.020;23.992;2023-05-21T11:13:11;92678.69;;;19.68;51.60
3250;BME280;1637;42.020;23.992;2023-05-21T11:16:03;92668.59;;;19.93;52.25
3250;BME280;1637;42.020;23.992;2023-05-21T11:18:57;92661.97;;;19.28;50.96
3250;BME280;1637;42.020;23.992;2023-05-21T11:21:28;92658.97;;;19.59;51.13
3250;BME280;1637;42.020;23.992;2023-05-21T11:23:58;92660.06;;;19.43;51.92
3250;BME280;1637;42.020;23.992;2023-05-21T11:26:27;92643.47;;;19.08;51.67
3250;BME280;1637;42.020;23.992;2023-05-21T11:29:06;92631.81;;;19.16;53.10
3250;BME280;1637;42.020;23.992;2023-05-21T11:31:34;92661.78;;;19.31;52.36
3250;BME280;1637;42.020;23.992;2023-05-21T11:34:14;92665.34;;;19.46;52.34
3250;BME280;1637;42.020;23.992;2023-05-21T11:36:43;92669.22;;;19.21;52.43
3250;BME280;1637;42.020;23.992;2023-05-21T11:39:12;92668.88;;;19.29;53.76
3250;BME280;1637;42.020;23.992;2023-05-21T11:41:52;92671.31;;;19.27;54.94
3250;BME280;1637;42.020;23.992;2023-05-21T11:44:21;92668.09;;;18.95;55.82
3250;BME280;1637;42.020;23.992;2023-05-21T11:47:03;92666.16;;;18.50;57.45
3250;BME280;1637;42.020;23.992;2023-05-21T11:49:32;92668.44;;;18.33;58.77
3250;BME280;1637;42.020;23.992;2023-05-21T11:51:59;92684.72;;;18.15;64.09
3250;BME280;1637;42.020;23.992;2023-05-21T11:54:26;92678.50;;;17.38;63.76
3250;BME280;1637;42.020;23.992;2023-05-21T11:56:54;92684.59;;;16.89;67.15
3250;BME280;1637;42.020;23.992;2023-05-21T11:59:21;92694.16;;;16.15;69.37
3250;BME280;1637;42.020;23.992;2023-05-21T12:01:48;92688.50;;;15.88;70.58
3250;BME280;1637;42.020;23.992;2023-05-21T12:04:15;92679.81;;;15.46;73.87
3250;BME280;1637;42.020;23.992;2023-05-21T12:06:43;92678.09;;;15.27;77.21
3250;BME280;1637;42.020;23.992;2023-05-21T12:09:10;92683.91;;;15.00;72.86
3250;BME280;1637;42.020;23.992;2023-05-21T12:11:38;92664.91;;;14.78;76.20
3250;BME280;1637;42.020;23.992;2023-05-21T12:14:08;92640.88;;;14.71;75.59
3250;BME280;1637;42.020;23.992;2023-05-21T12:16:36;92671.94;;;15.26;73.66
3250;BME280;1637;42.020;23.992;2023-05-21T12:19:03;92672.56;;;15.68;75.43
3250;BME280;1637;42.020;23.992;2023-05-21T12:21:29;92666.19;;;15.75;70.90
3250;BME280;1637;42.020;23.992;2023-05-21T12:23:58;92669.84;;;16.37;73.04
3250;BME280;1637;42.020;23.992;2023-05-21T12:26:25;92673.34;;;16.47;72.96
3250;BME280;1637;42.020;23.992;2023-05-21T12:28:53;92669.72;;;16.41;71.10
3250;BME280;1637;42.020;23.992;2023-05-21T12:31:21;92669.69;;;16.63;72.80
3250;BME280;1637;42.020;23.992;2023-05-21T12:33:49;92671.91;;;17.08;70.53
3250;BME280;1637;42.020;23.992;2023-05-21T12:36:25;92673.94;;;17.26;69.83
3250;BME280;1637;42.020;23.992;2023-05-21T12:38:53;92676.56;;;16.98;71.05
3250;BME280;1637;42.020;23.992;2023-05-21T12:41:22;92670.03;;;17.27;67.38
3250;BME280;1637;42.020;23.992;2023-05-21T12:43:49;92672.97;;;17.41;67.67
3250;BME280;1637;42.020;23.992;2023-05-21T12:46:16;92662.59;;;17.49;72.63
3250;BME280;1637;42.020;23.992;2023-05-21T12:48:52;92662.91;;;17.51;68.04
3250;BME280;1637;42.020;23.992;2023-05-21T12:51:19;92660.94;;;17.42;68.40
3250;BME280;1637;42.020;23.992;2023-05-21T12:53:47;92634.41;;;17.28;68.43
3250;BME280;1637;42.020;23.992;2023-05-21T12:56:14;92664.50;;;17.30;67.55
3250;BME280;1637;42.020;23.992;2023-05-21T12:58:48;92657.13;;;17.31;70.68
3250;BME280;1637;42.020;23.992;2023-05-21T13:01:15;92654.84;;;17.20;71.58
3250;BME280;1637;42.020;23.992;2023-05-21T13:03:43;92648.69;;;17.29;78.01
3250;BME280;1637;42.020;23.992;2023-05-21T13:06:12;92631.94;;;17.61;78.07
3250;BME280;1637;42.020;23.992;2023-05-21T13:08:38;92655.94;;;17.81;77.53
3250;BME280;1637;42.020;23.992;2023-05-21T13:11:05;92657.56;;;17.69;78.57
3250;BME280;1637;42.020;23.992;2023-05-21T13:13:32;92665.09;;;17.74;79.46